Latest Coastal Weather Observations for Mackay

IDQ60701

Issued at 6:41 pm EST Saturday 23 May 2015 (issued every 10 minutes, with the page automatically refreshed every 10 minutes)

About coastal observations | Map of coastal stations | Coastal observations for QLD | Marine services | Other Formats
Station Details ID: 033119 Name: MACKAY M.O Lat: -21.12 Lon: 149.22 Height: 30.26 m
Data from the previous 72 hours. | See also: Recent months at Mackay
Date/Time
EST
Temp

°C
Wind Pressure Rain
since 9am
mm
Weather Cloud Vis
km
Sea
Height
m
Swell
Dir
 
Speed
knots
Gust
knots
hPa Trend Height
m
Period
s
Dir
23/06:30pm 19.0 S 11 15 1020.3 - 0.0 - - - - - - -
23/06:00pm 19.2 S 12 17 1020.2 F 0.0 - - - - - - -
23/05:30pm 19.3 SSE 13 19 1020.2 - 0.0 - - - - - - -
23/05:00pm 19.4 SSE 13 19 1020.1 - 0.0 - Mostly clear 10 - - - -
23/04:30pm 19.6 SSE 12 21 1019.8 - 0.0 - Mostly clear 10 - - - -
23/04:00pm 19.7 SSE 13 18 1019.8 - 0.0 - Mostly clear 10 - - - -
23/03:30pm 20.0 SSE 10 16 1019.5 - 0.0 - Mostly clear 10 - - - -
23/03:00pm 20.2 SSE 11 17 1019.6 R 0.0 Fine Mostly clear 25 - - - -
23/02:30pm 20.2 SSE 11 16 1019.6 - 0.0 - Mostly clear 10 - - - -
23/02:00pm 20.3 SSE 11 18 1019.6 - 0.0 - Mostly clear 10 - - - -
23/01:30pm 19.9 SSE 11 18 1019.9 - 0.0 - - - - - - -
23/01:00pm 19.7 SSE 12 17 1020.4 - 0.0 - Mostly clear 10 - - - -
23/12:30pm 19.9 SSE 12 18 1020.8 - 0.0 - Mostly clear 10 - - - -
23/12:00pm 19.5 SSE 12 20 1021.2 R 0.0 Fine Partly cloudy 25 - - - -
23/11:30am 18.7 SSE 12 18 1021.7 - 0.0 - Partly cloudy 10 - - - -
23/11:00am 18.6 SSE 11 17 1022.0 - 0.0 - Partly cloudy 10 - - - -
23/10:30am 17.6 SSE 13 21 1022.1 - 0.0 - Partly cloudy 10 - - - -
23/10:00am 17.4 SSE 14 20 1022.1 - 0.0 - Partly cloudy 10 - - - -
23/09:30am 17.8 SSE 13 20 1022.1 - 0.0 - Mostly clear 10 - - - -
23/09:00am 16.7 SSE 15 20 1022.0 R 0.0 Fine Mostly clear 25 - - - -
23/08:30am 16.0 S 13 20 1021.9 - 0.0 - - - - - - -
23/08:00am 14.7 SSW 10 13 1021.6 - 0.0 - Mostly clear 10 - - - -
23/07:30am 13.7 S 9 12 1021.0 - 0.0 - Mostly clear 10 - - - -
23/07:00am 13.0 SSW 11 14 1020.7 - 0.0 - Mostly clear 10 - - - -
23/06:30am 13.1 SSW 10 15 1020.5 - 0.0 - Mostly clear 10 - - - -
23/06:04am 13.9 S 11 16 1020.2 - 0.0 - Mostly clear 10 - - - -
23/06:00am 14.0 S 11 16 1020.2 R 0.0 Fine Partly cloudy 25 - - - -
23/05:30am 14.7 S 16 22 1019.6 - 0.0 - - - - - - -
23/05:00am 14.8 S 14 21 1019.5 - 0.0 - - - - - - -
23/04:30am 14.7 S 11 16 1019.4 - 0.0 - - - - - - -
23/04:00am 15.1 S 15 20 1019.2 - 0.0 - - - - - - -
23/03:30am 15.1 SSE 14 21 1019.2 - 0.0 - - - - - - -
23/03:00am 15.4 SSE 14 21 1019.1 - 0.0 - - - - - - -
23/02:30am 15.8 SSE 17 25 1019.1 - 0.0 - - - - - - -
23/02:09am 16.1 SSE 17 27 1019.1 - 0.0 - - - - - - -
23/02:00am 16.4 SSE 19 25 1019.2 - 0.0 - - - - - - -
23/01:30am 16.6 SSE 19 29 1019.3 - 0.0 - - - - - - -
23/01:23am 16.6 SSE 19 29 1019.3 - 0.0 - - - - - - -
23/01:00am 17.3 S 18 24 1019.4 - 0.0 - - - - - - -
23/12:30am 17.9 S 17 24 1019.4 - 0.0 - - - - - - -
23/12:14am 18.5 S 16 26 1019.4 - 0.0 - - - - - - -
23/12:00am 18.5 S 14 21 1019.5 - 0.0 - - - - - - -
 
Date/Time
EST
Temp

°C
Wind Pressure Rain
since 9am
mm
Weather Cloud Vis
km
Sea
Height
m
Swell
Dir
 
Speed
knots
Gust
knots
hPa Trend Height
m
Period
s
Dir
22/11:30pm 19.6 SSE 17 25 1019.6 - 0.0 - - - - - - -
22/11:00pm 19.4 S 15 21 1019.8 - 0.0 - - - - - - -
22/10:30pm 19.0 S 13 17 1019.9 - 0.0 - - - - - - -
22/10:00pm 19.4 S 12 16 1019.8 - 0.0 - - - - - - -
22/09:30pm 20.0 S 13 18 1019.6 - 0.0 - - - - - - -
22/09:00pm 20.4 S 12 18 1019.4 R 0.0 - - - - - - -
22/08:30pm 21.1 S 13 17 1019.3 - 0.0 - - - - - - -
22/08:00pm 21.7 SSE 12 18 1018.9 - 0.0 - - - - - - -
22/07:30pm 21.4 SSE 10 14 1018.5 - 0.0 - - - - - - -
22/07:00pm 21.5 SE 8 13 1018.2 - 0.0 - - - - - - -
22/06:30pm 21.5 SE 9 15 1017.7 - 0.0 - - - - - - -
22/06:00pm 21.5 SSE 10 15 1017.2 R 0.0 - - - - - - -
22/05:30pm 21.6 SE 10 15 1016.8 - 0.0 - - - - - - -
22/05:00pm 21.8 SE 11 15 1016.7 - 0.0 - - - - - - -
22/04:30pm 22.4 SE 10 15 1016.3 - 0.0 - - - - - - -
22/04:00pm 22.8 SE 9 15 1016.1 - 0.0 - - - - - - -
22/03:30pm 22.8 SE 9 14 1015.8 - 0.0 - - - - - - -
22/03:00pm 24.0 SE 9 14 1015.8 R 0.0 - - - - - - -
22/02:30pm 25.3 SSE 9 15 1015.8 - 0.0 - - - - - - -
22/02:00pm 25.3 SSE 8 14 1016.0 - 0.0 - - - - - - -
22/01:30pm 24.9 SSE 11 15 1016.3 - 0.0 - - - - - - -
22/01:00pm 25.0 SSE 10 15 1016.6 - 0.0 - - - - - - -
22/12:30pm 24.9 SSE 11 16 1017.0 - 0.0 - - - - - - -
22/12:00pm 24.5 SSE 12 16 1017.4 F 0.0 - - - - - - -
22/11:30am 24.6 SSE 10 14 1017.8 - 0.0 - - - - - - -
22/11:00am 23.8 SSE 11 16 1018.1 - 0.0 - - - - - - -
22/10:30am 23.2 SSE 11 16 1018.5 - 0.0 - - - - - - -
22/10:00am 23.0 S 11 15 1018.7 - 0.0 - - - - - - -
22/09:30am 22.1 S 11 17 1018.8 - 0.0 - - - - - - -
22/09:00am 21.6 S 13 18 1018.7 R 0.2 - Mostly clear - - - - -
22/08:30am 20.5 S 10 15 1018.6 - 0.2 - Cloudy - - - - -
22/08:00am 19.8 S 8 11 1018.4 - 0.2 - Partly cloudy - - - - -
22/07:30am 18.9 SSW 7 9 1018.1 - 0.2 - - - - - - -
22/07:00am 18.9 SSW 8 10 1017.7 - 0.2 - Partly cloudy - - - - -
22/06:30am 18.9 SSW 7 9 1017.1 - 0.2 - Partly cloudy - - - - -
22/06:00am 19.2 SSW 7 9 1016.8 R 0.2 - Mostly cloudy - - - - -
22/05:30am 19.4 SSW 7 8 1016.3 - 0.2 - Partly cloudy - - - - -
22/05:00am 19.9 SW 6 7 1015.9 - 0.2 - Partly cloudy - - - - -
22/04:30am 20.4 SW 7 9 1015.7 - 0.2 - Partly cloudy - - - - -
22/04:00am 20.7 SW 4 6 1015.8 - 0.2 - Partly cloudy - - - - -
22/03:30am 20.6 SW 5 7 1015.9 - 0.0 - Partly cloudy - - - - -
22/03:00am 20.4 SW 5 7 1016.0 - 0.0 - Cloudy - - - - -
22/02:30am 20.5 SW 5 6 1016.1 - 0.0 - Partly cloudy - - - - -
22/02:00am 20.7 SW 5 6 1016.2 - 0.0 - Partly cloudy - - - - -
22/01:30am 20.8 SW 6 8 1016.4 - 0.0 - Partly cloudy - - - - -
22/01:00am 20.6 SW 7 9 1016.8 - 0.0 - Partly cloudy - - - - -
22/12:30am 20.8 WSW 5 7 1016.5 - 0.0 - Partly cloudy - - - - -
22/12:00am 20.8 WSW 5 6 1016.6 - 0.0 - Mostly clear - - - - -
 
Date/Time
EST
Temp

°C
Wind Pressure Rain
since 9am
mm
Weather Cloud Vis
km
Sea
Height
m
Swell
Dir
 
Speed
knots
Gust
knots
hPa Trend Height
m
Period
s
Dir
21/11:30pm 21.1 W 4 5 1016.9 - 0.0 - Partly cloudy - - - - -
21/11:00pm 20.9 WSW 5 6 1017.1 - 0.0 - - - - - - -
21/10:30pm 21.1 W 4 5 1017.2 - 0.0 - - - - - - -
21/10:00pm 21.0 WSW 5 6 1017.4 - 0.0 - - - - - - -
21/09:30pm 21.5 WSW 4 5 1017.3 - 0.0 - - - - - - -
21/09:00pm 22.2 NW 3 4 1017.3 F 0.0 - - - - - - -
21/08:30pm 21.8 N 3 4 1017.3 - 0.0 - - - - - - -
21/08:00pm 22.0 N 3 4 1016.9 - 0.0 - - - - - - -
21/07:30pm 22.0 N 2 4 1016.7 - 0.0 - - - - - - -
21/07:00pm 22.5 N 3 5 1016.3 - 0.0 - - - - - - -
21/06:30pm 22.7 NNE 5 7 1016.0 - 0.0 - - - - - - -
21/06:00pm 22.8 NE 5 7 1015.9 R 0.0 - - - - - - -
21/05:30pm 23.1 NE 4 7 1015.7 - 0.0 - - - - - - -
21/05:00pm 24.0 NE 6 8 1015.5 - 0.0 - - - - - - -
21/04:30pm 25.0 NNE 3 7 1015.2 - 0.0 - - - - - - -
21/04:00pm 25.5 NE 5 8 1015.2 - 0.0 - - - - - - -
21/03:30pm 25.9 NE 5 7 1014.8 - 0.0 - - - - - - -
21/03:00pm 26.7 NNE 5 8 1015.0 F 0.0 - - - - - - -
21/02:30pm 26.8 NNE 6 9 1015.1 - 0.0 - - - - - - -
21/02:00pm 27.5 NNE 5 9 1015.4 - 0.0 - - - - - - -
21/01:30pm 27.3 NNE 6 9 1015.8 - 0.0 - - - - - - -
21/01:00pm 27.0 NNE 5 8 1016.3 - 0.0 - - - - - - -
21/12:30pm 25.8 NE 5 8 1016.9 - 0.0 - - - - - - -
21/12:00pm 23.7 E 6 7 1017.5 F 0.0 - - - - - - -
21/11:30am 23.6 E 5 7 1018.1 - 0.0 - - - - - - -
21/11:07am 23.4 E 5 7 1018.4 - 0.0 - Partly cloudy - - - - -
21/11:00am 23.0 E 5 7 1018.5 - 0.0 - Partly cloudy - - - - -
21/10:30am 23.1 ESE 5 7 1018.8 - 0.0 - Partly cloudy - - - - -
21/10:17am 22.8 ESE 5 7 1019.0 - 0.0 - Partly cloudy - - - - -
21/10:00am 23.2 ESE 5 8 1019.2 - 0.0 - - - - - - -
21/09:30am 23.8 SE 5 7 1019.3 - 0.0 - Partly cloudy - - - - -
21/09:00am 22.6 S 5 7 1019.2 F 0.2 - - - - - - -
21/08:30am 21.8 SSW 5 6 1019.1 - 0.2 - - - - - - -
21/08:00am 20.9 SW 5 7 1018.9 - 0.2 - - - - - - -
21/07:30am 20.3 SW 4 5 1018.5 - 0.2 - - - - - - -
21/07:00am 19.7 SW 6 7 1018.2 - 0.2 - Partly cloudy - - - - -
21/06:30am 19.8 SW 5 7 1017.9 - 0.0 - - - - - - -
21/06:00am 19.9 WSW 5 6 1017.7 F 0.0 - - - - - - -
21/05:30am 20.0 SW 6 7 1017.3 - 0.0 - Partly cloudy - - - - -
21/05:00am 20.1 SW 6 7 1017.3 - 0.0 - - - - - - -
21/04:30am 20.1 WSW 5 7 1017.2 - 0.0 - - - - - - -
21/04:00am 20.2 WSW 5 7 1017.2 - 0.0 - Partly cloudy - - - - -
21/03:30am 20.3 SW 6 7 1017.3 - 0.0 - Partly cloudy - - - - -
21/03:00am 20.3 SW 6 8 1017.3 - 0.0 - - - - - - -
21/02:30am 20.3 SW 6 8 1017.3 - 0.0 - - - - - - -
21/02:00am 20.5 SW 6 7 1017.5 - 0.0 - - - - - - -
21/01:30am 20.5 SW 5 6 1017.7 - 0.0 - - - - - - -
21/01:00am 20.5 SW 6 7 1018.0 - 0.0 - - - - - - -
21/12:30am 20.6 SW 5 6 1018.3 - 0.0 - - - - - - -
21/12:00am 20.7 SW 5 6 1018.5 - 0.0 - - - - - - -
 
Date/Time
EST
Temp

°C
Wind Pressure Rain
since 9am
mm
Weather Cloud Vis
km
Sea
Height
m
Swell
Dir
 
Speed
knots
Gust
knots
hPa Trend Height
m
Period
s
Dir
20/11:30pm 20.7 SW 5 7 1018.7 - 0.0 - - - - - - -
20/11:00pm 20.8 SW 5 6 1018.9 - 0.0 - - - - - - -
20/10:30pm 21.2 SW 6 7 1019.0 - 0.0 - - - - - - -
20/10:00pm 21.4 S 4 5 1018.8 - 0.0 - - - - - - -
20/09:30pm 21.5 S 4 5 1018.8 - 0.0 - - - - - - -
20/09:00pm 21.5 SSE 4 5 1018.7 F 0.0 - - - - - - -
20/08:30pm 21.7 SSE 5 6 1018.6 - 0.0 - - - - - - -
20/08:00pm 21.8 SSE 5 7 1018.4 - 0.0 - - - - - - -
20/07:30pm 21.9 SE 5 7 1017.9 - 0.0 - Partly cloudy - - - - -
20/07:00pm 22.0 SSE 6 9 1017.7 - 0.0 - Partly cloudy - - - - -

Other Formats:

Comma delimited format used in spreadsheet applications
http://www.bom.gov.au/fwo/IDQ60701/IDQ60701.94367.axf

JavaScript Object Notation format (JSON) in row-major order
http://www.bom.gov.au/fwo/IDQ60701/IDQ60701.94367.json